createdAt,value
2022-08-20T00:01:38.325Z,46.57
2022-08-20T00:04:05.259Z,46.43
2022-08-20T00:06:34.434Z,46.77
2022-08-20T00:09:01.235Z,47.12
2022-08-20T00:11:29.078Z,47.19
2022-08-20T00:14:00.828Z,47.58
2022-08-20T00:16:36.513Z,47.20
2022-08-20T00:19:07.575Z,47.26
2022-08-20T00:21:36.503Z,47.59
2022-08-20T00:24:04.822Z,47.68
2022-08-20T00:26:31.703Z,47.44
2022-08-20T00:28:58.579Z,47.96
2022-08-20T00:31:25.980Z,47.96
2022-08-20T00:33:53.735Z,47.67
2022-08-20T00:36:22.449Z,48.02
2022-08-20T00:39:00.573Z,48.20
2022-08-20T00:41:29.257Z,48.45
2022-08-20T00:44:18.541Z,48.86
2022-08-20T00:46:46.672Z,48.92
2022-08-20T00:49:22.806Z,48.96
2022-08-20T00:52:04.594Z,49.04
2022-08-20T00:54:43.925Z,48.97
2022-08-20T00:57:28.895Z,49.55
2022-08-20T01:00:33.450Z,49.58
2022-08-20T01:03:01.616Z,49.79
2022-08-20T01:05:29.827Z,50.18
2022-08-20T01:07:58.167Z,50.08
2022-08-20T01:10:32.133Z,50.29
2022-08-20T01:12:59.908Z,50.28
2022-08-20T01:15:31.831Z,50.48
2022-08-20T01:18:00.975Z,50.41
2022-08-20T01:20:37.950Z,50.45
2022-08-20T01:23:35.561Z,50.84
2022-08-20T01:26:30.915Z,50.86
2022-08-20T01:29:14.009Z,50.63
2022-08-20T01:31:42.965Z,50.96
2022-08-20T01:34:15.544Z,51.08
2022-08-20T01:36:54.240Z,51.26
2022-08-20T01:39:35.043Z,50.89
2022-08-20T01:42:59.013Z,51.26
2022-08-20T01:45:29.231Z,51.37
2022-08-20T01:47:58.885Z,51.31
2022-08-20T01:50:30.784Z,51.37
2022-08-20T01:53:21.283Z,51.41
2022-08-20T01:55:48.112Z,51.46
2022-08-20T01:58:15.060Z,51.58
2022-08-20T02:00:42.157Z,51.51
2022-08-20T02:03:09.391Z,51.43
2022-08-20T02:05:36.300Z,51.42
2022-08-20T02:08:04.717Z,51.76
2022-08-20T02:10:32.149Z,51.38
2022-08-20T02:13:02.757Z,51.48
2022-08-20T02:15:34.844Z,51.27
2022-08-20T02:18:11.915Z,51.65
2022-08-20T02:20:40.491Z,51.55
2022-08-20T02:23:09.048Z,51.69
2022-08-20T02:25:40.228Z,51.76
2022-08-20T02:28:11.410Z,51.38
2022-08-20T02:30:47.297Z,51.66
2022-08-20T02:33:18.136Z,51.56
2022-08-20T02:35:49.121Z,51.74
2022-08-20T02:38:16.719Z,51.63
2022-08-20T02:40:45.863Z,51.90
2022-08-20T02:43:13.072Z,51.71
2022-08-20T02:45:43.818Z,51.54
2022-08-20T02:48:20.769Z,51.83
2022-08-20T02:50:52.760Z,51.96
2022-08-20T02:53:20.580Z,51.70
2022-08-20T02:55:47.391Z,51.84
2022-08-20T02:58:14.455Z,51.78
2022-08-20T03:00:41.751Z,51.68
2022-08-20T03:03:11.550Z,51.87
2022-08-20T03:05:41.926Z,52.01
2022-08-20T03:08:12.171Z,52.09
2022-08-20T03:10:41.466Z,52.16
2022-08-20T03:13:12.663Z,52.42
2022-08-20T03:15:59.426Z,52.25
2022-08-20T03:18:32.018Z,52.44
2022-08-20T03:20:59.331Z,52.20
2022-08-20T03:23:26.549Z,52.08
2022-08-20T03:25:53.338Z,52.07
2022-08-20T03:28:20.376Z,52.29
2022-08-20T03:30:48.627Z,52.69
2022-08-20T03:33:16.349Z,52.55
2022-08-20T03:35:43.418Z,52.32
2022-08-20T03:38:13.141Z,52.52
2022-08-20T03:40:40.659Z,52.21
2022-08-20T03:43:10.395Z,52.44
2022-08-20T03:45:40.464Z,52.68
2022-08-20T03:48:11.364Z,52.50
2022-08-20T03:50:41.716Z,52.91
2022-08-20T03:53:13.133Z,52.87
2022-08-20T03:55:54.378Z,52.63
2022-08-20T03:58:29.922Z,52.62
2022-08-20T04:01:04.095Z,52.62
2022-08-20T04:03:31.015Z,52.51
2022-08-20T04:05:58.774Z,52.53
2022-08-20T04:08:29.621Z,52.75
2022-08-20T04:10:58.294Z,52.90
2022-08-20T04:13:28.199Z,52.87
2022-08-20T04:15:56.755Z,52.89
2022-08-20T04:18:25.737Z,53.04
2022-08-20T04:20:53.948Z,52.83
2022-08-20T04:23:22.357Z,52.76
2022-08-20T04:25:49.281Z,52.72
2022-08-20T04:28:30.031Z,52.73
2022-08-20T04:31:00.493Z,53.12
2022-08-20T04:33:33.824Z,53.08
2022-08-20T04:36:05.589Z,52.80
2022-08-20T04:38:50.596Z,52.67
2022-08-20T04:41:21.099Z,52.72
2022-08-20T04:43:55.817Z,53.05
2022-08-20T04:46:27.495Z,52.88
2022-08-20T04:48:56.368Z,52.70
2022-08-20T04:51:24.518Z,52.85
2022-08-20T04:53:54.286Z,52.67
2022-08-20T04:56:31.946Z,52.95
2022-08-20T04:59:01.571Z,52.57
2022-08-20T05:01:29.413Z,52.77
2022-08-20T05:03:58.224Z,53.18
2022-08-20T05:06:29.578Z,52.74
2022-08-20T05:08:59.428Z,52.81
2022-08-20T05:11:35.457Z,52.82
2022-08-20T05:14:09.008Z,52.84
2022-08-20T05:16:41.017Z,52.78
2022-08-20T05:19:11.908Z,52.67
2022-08-20T05:21:39.990Z,52.79
2022-08-20T05:24:07.969Z,52.72
2022-08-20T05:26:35.239Z,53.15
2022-08-20T05:29:04.849Z,53.08
2022-08-20T05:31:33.603Z,52.90
2022-08-20T05:34:09.758Z,52.85
2022-08-20T05:36:40.533Z,52.62
2022-08-20T05:39:08.876Z,52.67
2022-08-20T05:41:36.280Z,52.76
2022-08-20T05:44:04.267Z,52.76
2022-08-20T05:46:32.140Z,52.88
2022-08-20T05:49:01.599Z,53.03
2022-08-20T05:51:29.568Z,52.80
2022-08-20T05:53:58.263Z,53.11
2022-08-20T05:56:30.440Z,53.13
2022-08-20T05:59:01.437Z,53.16
2022-08-20T06:01:28.537Z,52.87
2022-08-20T06:04:15.579Z,53.23
2022-08-20T06:06:46.002Z,52.90
2022-08-20T06:09:27.945Z,52.98
2022-08-20T06:12:01.844Z,52.94
2022-08-20T06:14:29.160Z,53.13
2022-08-20T06:17:02.748Z,53.16
2022-08-20T06:19:32.506Z,53.48
2022-08-20T06:22:00.971Z,53.35
2022-08-20T06:24:28.034Z,53.27
2022-08-20T06:27:04.914Z,53.58
2022-08-20T06:29:33.540Z,53.55
2022-08-20T06:32:01.586Z,54.38
2022-08-20T06:34:30.815Z,54.10
2022-08-20T06:36:59.557Z,54.59
2022-08-20T06:39:30.960Z,54.67
2022-08-20T06:41:58.872Z,54.60
2022-08-20T06:44:25.972Z,54.58
2022-08-20T06:46:52.903Z,54.45
2022-08-20T06:49:19.738Z,54.62
2022-08-20T06:51:46.552Z,54.34
2022-08-20T06:54:18.790Z,54.34
2022-08-20T06:56:45.582Z,54.62
2022-08-20T06:59:12.390Z,54.31
2022-08-20T07:01:39.301Z,54.08
2022-08-20T07:04:08.378Z,54.37
2022-08-20T07:06:35.208Z,53.96
2022-08-20T07:09:02.135Z,53.86
2022-08-20T07:11:29.167Z,54.17
2022-08-20T07:13:58.307Z,53.74
2022-08-20T07:16:25.840Z,53.79
2022-08-20T07:18:52.786Z,53.77
2022-08-20T07:21:19.651Z,53.62
2022-08-20T07:23:48.854Z,53.29
2022-08-20T07:26:16.592Z,52.99
2022-08-20T07:28:43.489Z,53.18
2022-08-20T07:31:28.907Z,52.65
2022-08-20T07:33:58.563Z,52.48
2022-08-20T07:36:27.944Z,52.20
2022-08-20T07:38:55.085Z,51.98
2022-08-20T07:41:24.340Z,51.88
2022-08-20T07:43:51.221Z,51.61
2022-08-20T07:46:21.404Z,51.48
2022-08-20T07:48:51.241Z,51.11
2022-08-20T07:51:22.128Z,50.78
2022-08-20T07:53:51.630Z,50.57
2022-08-20T07:56:24.189Z,50.26
2022-08-20T07:58:55.402Z,49.99
2022-08-20T08:01:31.662Z,49.94
2022-08-20T08:04:00.035Z,49.56
2022-08-20T08:06:31.538Z,49.67
2022-08-20T08:09:13.227Z,49.24
2022-08-20T08:11:51.759Z,49.55
2022-08-20T08:14:26.858Z,49.21
2022-08-20T08:16:58.055Z,49.50
2022-08-20T08:19:37.735Z,49.43
2022-08-20T08:22:12.158Z,49.28
2022-08-20T08:24:41.552Z,49.01
2022-08-20T08:27:23.495Z,48.76
2022-08-20T08:29:50.388Z,48.93
2022-08-20T08:32:17.430Z,48.60
2022-08-20T08:34:48.109Z,48.72
2022-08-20T08:37:14.954Z,48.66
2022-08-20T08:39:42.295Z,48.05
2022-08-20T08:42:34.073Z,47.76
2022-08-20T08:45:04.547Z,47.92
2022-08-20T08:47:37.712Z,47.75
2022-08-20T08:50:38.575Z,47.41
2022-08-20T08:53:33.414Z,46.58
2022-08-20T08:56:01.664Z,46.46
2022-08-20T08:58:29.152Z,45.83
2022-08-20T09:00:57.745Z,45.94
2022-08-20T09:03:34.049Z,45.69
2022-08-20T09:06:03.633Z,45.27
2022-08-20T09:08:50.336Z,44.96
2022-08-20T09:11:22.407Z,44.46
2022-08-20T09:13:49.993Z,44.24
2022-08-20T09:16:16.840Z,44.45
2022-08-20T09:18:43.653Z,44.74
2022-08-20T09:21:10.860Z,45.41
2022-08-20T09:23:37.992Z,45.04
2022-08-20T09:26:05.111Z,45.66
2022-08-20T09:28:34.811Z,45.54
2022-08-20T09:31:03.127Z,45.75
2022-08-20T09:33:31.670Z,45.92
2022-08-20T09:35:58.559Z,46.08
2022-08-20T09:38:25.510Z,46.04
2022-08-20T09:40:52.343Z,46.37
2022-08-20T09:43:19.177Z,47.15
2022-08-20T09:45:46.012Z,46.74
2022-08-20T09:48:12.776Z,46.80
2022-08-20T09:50:47.547Z,47.25
2022-08-20T09:53:16.437Z,47.81
2022-08-20T09:55:51.305Z,47.50
2022-08-20T09:58:38.467Z,47.11
2022-08-20T10:01:15.424Z,47.16
2022-08-20T10:03:44.638Z,46.80
2022-08-20T10:06:14.617Z,46.10
2022-08-20T10:08:41.665Z,46.24
2022-08-20T10:11:08.763Z,45.88
2022-08-20T10:13:35.539Z,45.26
2022-08-20T10:16:02.545Z,45.05
2022-08-20T10:18:29.390Z,44.52
2022-08-20T10:20:56.208Z,44.63
2022-08-20T10:23:22.973Z,43.82
2022-08-20T10:25:49.807Z,43.19
2022-08-20T10:28:16.614Z,42.24
2022-08-20T10:30:45.041Z,41.88
2022-08-20T10:33:11.853Z,41.79
2022-08-20T10:35:38.694Z,41.73
2022-08-20T10:38:05.496Z,41.64
2022-08-20T10:40:32.324Z,42.00
2022-08-20T10:42:59.186Z,42.14
2022-08-20T10:45:26.018Z,42.20
2022-08-20T10:47:53.064Z,41.98
2022-08-20T10:50:20.168Z,41.07
2022-08-20T10:52:47.474Z,41.24
2022-08-20T10:55:15.128Z,40.89
2022-08-20T10:57:43.339Z,40.41
2022-08-20T11:00:14.881Z,39.32
2022-08-20T11:02:41.732Z,39.21
2022-08-20T11:05:09.488Z,39.46
2022-08-20T11:07:54.930Z,38.88
2022-08-20T11:10:28.859Z,39.46
2022-08-20T11:12:55.911Z,39.94
2022-08-20T11:15:23.388Z,40.00
2022-08-20T11:17:50.824Z,40.18
2022-08-20T11:20:21.165Z,40.05
2022-08-20T11:22:48.235Z,39.69
2022-08-20T11:25:15.284Z,40.22
2022-08-20T11:27:46.675Z,39.53
2022-08-20T11:30:23.611Z,39.02
2022-08-20T11:32:50.589Z,39.21
2022-08-20T11:35:41.716Z,38.84
2022-08-20T11:38:05.536Z,38.41
2022-08-20T11:40:32.492Z,38.26
2022-08-20T11:43:14.283Z,37.66
2022-08-20T11:45:43.449Z,37.57
2022-08-20T11:48:10.195Z,37.71
2022-08-20T11:50:37.070Z,37.01
2022-08-20T11:53:03.943Z,36.88
2022-08-20T11:55:31.107Z,37.23
2022-08-20T11:58:00.630Z,36.30
2022-08-20T12:00:33.375Z,36.31
2022-08-20T12:03:08.871Z,35.66
2022-08-20T12:05:38.348Z,35.72
2022-08-20T12:08:05.760Z,36.51
2022-08-20T12:10:33.261Z,36.75
2022-08-20T12:13:00.320Z,37.28
2022-08-20T12:15:29.666Z,37.96
2022-08-20T12:17:56.822Z,37.76
2022-08-20T12:20:25.145Z,37.67
2022-08-20T12:22:53.895Z,37.52
2022-08-20T12:25:20.796Z,37.89
2022-08-20T12:27:47.648Z,37.35
2022-08-20T12:30:22.743Z,37.43
2022-08-20T12:32:50.309Z,37.44
2022-08-20T12:35:19.245Z,36.87
2022-08-20T12:37:47.037Z,36.57
2022-08-20T12:40:31.764Z,35.89
2022-08-20T12:43:03.808Z,35.80
2022-08-20T12:45:33.171Z,35.74
2022-08-20T12:48:10.087Z,35.59
2022-08-20T12:50:39.859Z,36.48
2022-08-20T12:53:07.875Z,36.45
2022-08-20T12:55:35.471Z,36.35
2022-08-20T12:58:04.724Z,36.62
2022-08-20T13:00:46.509Z,37.19
2022-08-20T13:03:19.484Z,37.37
2022-08-20T13:05:47.573Z,37.82
2022-08-20T13:08:14.636Z,38.45
2022-08-20T13:10:45.522Z,39.18
2022-08-20T13:13:20.991Z,39.24
2022-08-20T13:15:50.508Z,39.21
2022-08-20T13:18:18.892Z,39.34
2022-08-20T13:20:46.022Z,39.40
2022-08-20T13:23:13.181Z,39.18
2022-08-20T13:25:40.087Z,38.83
2022-08-20T13:28:06.963Z,38.70
2022-08-20T13:30:38.494Z,38.74
2022-08-20T13:33:05.470Z,38.75
2022-08-20T13:35:32.421Z,38.54
2022-08-20T13:37:59.382Z,38.68
2022-08-20T13:40:26.614Z,38.72
2022-08-20T13:42:53.621Z,38.51
2022-08-20T13:45:20.687Z,38.24
2022-08-20T13:47:54.215Z,38.12
2022-08-20T13:50:27.086Z,37.94
2022-08-20T13:52:54.504Z,38.26
2022-08-20T13:55:26.774Z,37.70
2022-08-20T13:57:55.777Z,37.24
2022-08-20T14:00:31.854Z,37.33
2022-08-20T14:03:00.911Z,36.92
2022-08-20T14:05:29.240Z,36.38
2022-08-20T14:07:56.575Z,36.58
2022-08-20T14:10:31.177Z,36.31
2022-08-20T14:12:59.519Z,36.16
2022-08-20T14:15:26.453Z,35.43
2022-08-20T14:17:56.222Z,35.73
2022-08-20T14:20:29.240Z,35.81
2022-08-20T14:22:57.729Z,34.79
2022-08-20T14:25:26.586Z,34.56
2022-08-20T14:27:55.080Z,34.71
2022-08-20T14:30:30.515Z,34.85
2022-08-20T14:32:57.466Z,34.36
2022-08-20T14:35:24.702Z,34.70
2022-08-20T14:37:54.321Z,34.76
2022-08-20T14:40:24.159Z,34.22
2022-08-20T14:42:51.981Z,34.15
2022-08-20T14:45:20.293Z,34.16
2022-08-20T14:47:54.035Z,32.98
2022-08-20T14:50:34.699Z,31.71
2022-08-20T14:53:01.908Z,31.33
2022-08-20T14:55:35.820Z,31.31
2022-08-20T14:58:11.659Z,30.92
2022-08-20T15:00:39.648Z,30.43
2022-08-20T15:03:06.595Z,30.94
2022-08-20T15:05:34.734Z,29.55
2022-08-20T15:08:08.041Z,29.53
2022-08-20T15:10:37.176Z,29.45
2022-08-20T15:13:04.115Z,30.21
2022-08-20T15:15:30.956Z,30.23
2022-08-20T15:18:00.545Z,29.62
2022-08-20T15:20:31.379Z,28.94
2022-08-20T15:22:59.221Z,27.03
2022-08-20T15:25:36.856Z,27.14
2022-08-20T15:28:08.623Z,28.22
2022-08-20T15:30:39.047Z,28.86
2022-08-20T15:33:06.319Z,28.97
2022-08-20T15:35:33.428Z,30.43
2022-08-20T15:38:01.705Z,29.77
2022-08-20T15:40:32.400Z,29.96
2022-08-20T15:43:02.770Z,30.04
2022-08-20T15:45:31.341Z,30.67
2022-08-20T15:48:17.194Z,30.59
2022-08-20T15:51:27.515Z,30.37
2022-08-20T15:54:07.646Z,30.34
2022-08-20T15:56:50.302Z,30.82
2022-08-20T15:59:32.544Z,30.55
2022-08-20T16:02:45.080Z,30.45
2022-08-20T16:05:17.654Z,30.50
2022-08-20T16:08:06.048Z,30.94
2022-08-20T16:10:48.193Z,30.95
2022-08-20T16:13:49.203Z,30.79
2022-08-20T16:16:33.806Z,30.53
2022-08-20T16:19:01.867Z,29.24
2022-08-20T16:21:37.538Z,29.72
2022-08-20T16:24:07.920Z,30.33
2022-08-20T16:26:51.109Z,30.46
2022-08-20T16:29:26.603Z,30.96
2022-08-20T16:32:59.786Z,30.67
2022-08-20T16:35:42.013Z,30.74
2022-08-20T16:38:43.007Z,30.62
2022-08-20T16:41:34.667Z,30.48
2022-08-20T16:44:12.780Z,30.00
2022-08-20T16:47:14.697Z,30.11
2022-08-20T16:50:06.246Z,31.10
2022-08-20T16:52:33.144Z,30.63
2022-08-20T16:55:00.024Z,30.77
2022-08-20T16:57:28.562Z,28.82
2022-08-20T17:00:10.923Z,28.99
2022-08-20T17:02:53.530Z,28.46
2022-08-20T17:05:23.806Z,29.50
2022-08-20T17:08:01.071Z,30.23
2022-08-20T17:10:33.557Z,30.32
2022-08-20T17:13:23.807Z,30.78
2022-08-20T17:15:58.741Z,29.38
2022-08-20T17:18:29.813Z,29.52
2022-08-20T17:21:30.460Z,30.02
2022-08-20T17:24:02.665Z,29.69
2022-08-20T17:26:46.392Z,30.56
2022-08-20T17:29:27.319Z,30.28
2022-08-20T17:32:09.117Z,28.83
2022-08-20T17:34:53.665Z,29.35
2022-08-20T17:37:27.294Z,29.95
2022-08-20T17:40:17.294Z,29.92
2022-08-20T17:42:56.757Z,30.02
2022-08-20T17:45:34.186Z,28.88
2022-08-20T17:48:01.593Z,28.81
2022-08-20T17:50:40.771Z,29.03
2022-08-20T17:53:23.636Z,28.68
2022-08-20T17:55:58.706Z,28.83
2022-08-20T17:58:54.274Z,28.71
2022-08-20T18:01:23.641Z,28.74
2022-08-20T18:03:52.983Z,28.50
2022-08-20T18:07:04.698Z,28.46
2022-08-20T18:09:50.214Z,28.52
2022-08-20T18:12:37.111Z,29.16
2022-08-20T18:15:26.036Z,29.22
2022-08-20T18:18:30.422Z,28.92
2022-08-20T18:21:42.172Z,29.12
2022-08-20T18:24:17.478Z,29.12
2022-08-20T18:26:56.657Z,29.20
2022-08-20T18:29:31.517Z,29.52
2022-08-20T18:32:23.335Z,29.70
2022-08-20T18:34:51.147Z,30.25
2022-08-20T18:37:17.869Z,29.30
2022-08-20T18:39:48.546Z,29.69
2022-08-20T18:42:35.837Z,30.02
2022-08-20T18:45:05.020Z,30.04
2022-08-20T18:47:34.601Z,30.16
2022-08-20T18:50:15.705Z,29.92
2022-08-20T18:53:33.707Z,30.41
2022-08-20T18:56:14.060Z,30.22
2022-08-20T18:59:01.686Z,29.95
2022-08-20T19:01:31.837Z,30.25
2022-08-20T19:03:58.758Z,30.14
2022-08-20T19:06:55.514Z,30.36
2022-08-20T19:09:40.531Z,30.33
2022-08-20T19:12:32.418Z,30.37
2022-08-20T19:15:07.058Z,30.69
2022-08-20T19:17:52.897Z,30.12
2022-08-20T19:20:25.773Z,30.09
2022-08-20T19:22:59.148Z,30.24
2022-08-20T19:25:37.968Z,30.33
2022-08-20T19:28:21.148Z,30.52
2022-08-20T19:30:48.242Z,30.74
2022-08-20T19:33:25.307Z,30.72
2022-08-20T19:35:52.539Z,30.51
2022-08-20T19:38:20.908Z,31.17
2022-08-20T19:40:51.614Z,31.06
2022-08-20T19:43:44.620Z,31.42
2022-08-20T19:46:17.956Z,31.12
2022-08-20T19:49:19.210Z,31.89
2022-08-20T19:52:17.401Z,31.46
2022-08-20T19:54:53.316Z,31.44
2022-08-20T19:57:22.514Z,31.72
2022-08-20T20:00:12.130Z,31.93
2022-08-20T20:02:41.433Z,31.82
2022-08-20T20:05:10.367Z,31.96
2022-08-20T20:07:46.590Z,31.67
2022-08-20T20:10:36.245Z,31.98
2022-08-20T20:13:16.531Z,31.96
2022-08-20T20:15:44.106Z,32.54
2022-08-20T20:18:12.937Z,32.44
2022-08-20T20:20:57.642Z,32.56
2022-08-20T20:23:45.769Z,32.42
2022-08-20T20:26:19.869Z,32.75
2022-08-20T20:28:54.668Z,32.87
2022-08-20T20:31:31.257Z,32.80
2022-08-20T20:34:09.347Z,32.85
2022-08-20T20:36:42.785Z,32.96
2022-08-20T20:39:27.548Z,32.76
2022-08-20T20:41:59.289Z,33.02
2022-08-20T20:44:45.025Z,33.05
2022-08-20T20:47:35.886Z,32.97
2022-08-20T20:50:10.431Z,32.62
2022-08-20T20:52:49.663Z,32.75
2022-08-20T20:55:31.072Z,33.00
2022-08-20T20:57:59.839Z,32.93
2022-08-20T21:00:34.146Z,32.99
2022-08-20T21:03:03.813Z,33.12
2022-08-20T21:05:33.146Z,33.42
2022-08-20T21:08:05.273Z,33.67
2022-08-20T21:10:37.507Z,33.65
2022-08-20T21:13:08.061Z,33.81
2022-08-20T21:15:37.860Z,34.15
2022-08-20T21:18:09.046Z,34.03
2022-08-20T21:20:37.406Z,34.12
2022-08-20T21:23:05.353Z,33.87
2022-08-20T21:25:35.095Z,34.22
2022-08-20T21:28:03.581Z,33.98
2022-08-20T21:30:31.426Z,33.80
2022-08-20T21:32:58.412Z,34.21
2022-08-20T21:35:25.567Z,34.25
2022-08-20T21:37:52.633Z,34.26
2022-08-20T21:40:21.478Z,34.01
2022-08-20T21:42:49.390Z,34.15
2022-08-20T21:45:19.639Z,33.92
2022-08-20T21:47:48.667Z,33.99
2022-08-20T21:50:19.398Z,34.07
2022-08-20T21:52:59.101Z,34.41
2022-08-20T21:55:28.503Z,34.38
2022-08-20T21:57:55.591Z,34.69
2022-08-20T22:00:59.082Z,35.20
2022-08-20T22:03:32.926Z,36.06
2022-08-20T22:06:01.605Z,36.43
2022-08-20T22:08:28.775Z,36.72
2022-08-20T22:10:58.482Z,36.81
2022-08-20T22:13:32.999Z,36.83
2022-08-20T22:16:03.936Z,37.05
2022-08-20T22:18:31.236Z,36.76
2022-08-20T22:20:58.519Z,36.69
2022-08-20T22:23:25.828Z,36.63
2022-08-20T22:25:52.679Z,37.04
2022-08-20T22:28:19.966Z,37.06
2022-08-20T22:30:47.369Z,37.47
2022-08-20T22:33:22.000Z,37.71
2022-08-20T22:35:53.775Z,37.68
2022-08-20T22:38:21.908Z,38.10
2022-08-20T22:40:49.539Z,38.23
2022-08-20T22:43:17.259Z,38.27
2022-08-20T22:45:48.975Z,38.67
2022-08-20T22:48:19.086Z,38.39
2022-08-20T22:50:47.913Z,38.53
2022-08-20T22:53:16.222Z,38.62
2022-08-20T22:55:43.103Z,38.29
2022-08-20T22:58:10.610Z,38.29
2022-08-20T23:00:38.641Z,38.28
2022-08-20T23:03:07.168Z,38.50
2022-08-20T23:05:36.859Z,38.62
2022-08-20T23:08:06.676Z,38.56
2022-08-20T23:10:36.819Z,38.74
2022-08-20T23:13:05.159Z,38.22
2022-08-20T23:15:37.043Z,38.74
2022-08-20T23:18:15.798Z,38.70
2022-08-20T23:20:48.664Z,38.87
2022-08-20T23:23:15.519Z,38.85
2022-08-20T23:25:42.453Z,39.10
2022-08-20T23:28:09.961Z,39.17
2022-08-20T23:30:36.890Z,39.50
2022-08-20T23:33:04.072Z,39.95
2022-08-20T23:35:31.992Z,40.31
2022-08-20T23:38:00.374Z,40.77
2022-08-20T23:40:28.950Z,41.16
2022-08-20T23:42:57.654Z,41.60
2022-08-20T23:45:24.936Z,41.92
2022-08-20T23:47:51.951Z,42.16
2022-08-20T23:50:24.190Z,42.23
2022-08-20T23:52:52.317Z,42.67
2022-08-20T23:55:20.789Z,42.88
2022-08-20T23:57:47.577Z,42.89
